Flight Track Log - Related Links

Times and Time Zones

All times are in EDT time to prevent confusion due to time zone crossing. See the PDT4226 flight status page for this flight to view local times or setup timezone preferences in your user account.

Time Position Orientation Groundspeed Altitude Reporting Facility
EDT Latitude Longitude Course Direction KTS MPH feet Rate Location/Type
Mon 12:16:47 PM 39.9000 -75.2333 293° West 117 135 700  Level Philadelphia TRACON
Mon 12:17:53 PM 39.9167 -75.2833 294° West 167 192 2,300 1,350 Climbing Philadelphia TRACON
Mon 12:18:47 PM 39.9333 -75.3333 294° West 180 207 3,400 1,368 Climbing Philadelphia TRACON
Mon 12:19:00 PM 40.0700 -75.3014 323° Northwest  Level Estimated
Mon 12:19:47 PM 39.9667 -75.3833 311° West 180 207 4,900  Level Philadelphia TRACON
Mon 12:20:00 PM 40.1359 -75.3216 311° West  Level Estimated
Mon 12:20:41 PM 39.9667 -75.4333 270° West 150 173 6,600  Level Philadelphia TRACON
Mon 12:21:00 PM 40.2018 -75.3419 311° West  Level Estimated
Mon 12:21:47 PM 39.9667 -75.5000 270° West 156 180 8,600  Level Philadelphia TRACON
Mon 12:22:00 PM 40.2281 -75.4236 293° West  Level FlightAware Approximate
Mon 12:22:40 PM 40.0050 -75.5297 329° Northwest 170 196 9,900  Level New York Center
Mon 12:23:40 PM 40.0464 -75.5406 349° North 181 208 10,900 1,050 Climbing New York Center
Mon 12:24:40 PM 40.1108 -75.5450 357° North 198 228 12,000 550 Climbing New York Center
Mon 12:25:40 PM 40.1642 -75.5594 348° North 215 247 12,000  Level New York Center
Mon 12:26:40 PM 40.2475 -75.5653 357° North 249 287 12,000  Level New York Center
Mon 12:27:40 PM 40.3244 -75.5706 357° North 266 306 12,000  Level New York Center
Mon 12:28:40 PM 40.3897 -75.6050 338° Northwest 261 300 12,000  Level New York Center
Mon 12:29:40 PM 40.4442 -75.6469 330° Northwest 255 293 12,000  Level New York Center
Mon 12:30:40 PM 40.5072 -75.6844 336° Northwest 250 288 12,000  Level New York Center
Mon 12:31:40 PM 40.5697 -75.7381 327° Northwest 245 282 12,000  Level New York Center
Mon 12:32:40 PM 40.6283 -75.7806 331° Northwest 240 276 12,000  Level New York Center
Mon 12:33:40 PM 40.6892 -75.8178 335° Northwest 245 282 12,000  Level New York Center
Mon 12:34:40 PM 40.7536 -75.8225 357° North 245 282 12,000  Level New York Center
Mon 12:35:40 PM 40.8261 -75.8333 354° North 250 288 12,000  Level New York Center
Mon 12:36:40 PM 40.9003 -75.8500 350° North 255 293 12,000  Level New York Center
Mon 12:37:40 PM 40.9728 -75.8581 355° North 255 293 12,000 -50 Level New York Center
Mon 12:38:40 PM 41.0417 -75.8606 358° North 255 293 11,900 -50 Descending New York Center
Mon 12:39:40 PM 41.1142 -75.8686 355° North 255 293 11,900  Level New York Center
Mon 12:40:40 PM 41.1764 -75.8761 355° North 255 293 11,900  Level New York Center
Mon 12:41:40 PM 41.2489 -75.8817 357° North 255 293 11,900  Level New York Center
Mon 12:42:40 PM 41.3256 -75.8903 355° North 255 293 11,900  Level New York Center
Mon 12:43:40 PM 41.3983 -75.8986 355° North 255 293 11,900 -100 Level New York Center
Mon 12:44:40 PM 41.4689 -75.9011 358° North 255 293 11,700 -550 Descending New York Center
Mon 12:45:40 PM 41.5433 -75.9125 353° North 255 293 10,800 -900 Descending New York Center
Mon 12:46:40 PM 41.6097 -75.9231 353° North 265 305 9,900 -950 Descending New York Center
Mon 12:47:40 PM 41.6944 -75.9350 354° North 270 311 8,900 -500 Descending New York Center
Mon 12:48:40 PM 41.7672 -75.9408 357° North 270 311 8,900 -202 Level New York Center
Mon 12:49:39 PM 41.8397 -75.9492 355° North 264 304 8,500 -655 Descending New York Center
Mon 12:50:39 PM 41.8989 -75.9286 14° North 248 285 7,600 -843 Descending New York Center
Mon 12:51:40 PM 41.9592 -75.8775 32° Northeast 242 278 6,800 -942 Descending New York Center
Mon 12:52:40 PM 42.0375 -75.8528 13° North 254 292 5,700 -850 Descending New York Center
Mon 12:53:40 PM 42.1081 -75.8583 357° North 254 292 5,100 -950 Descending New York Center
Mon 12:54:40 PM 42.1644 -75.8992 332° Northwest 238 274 3,800 -950 Descending New York Center
Mon 12:55:40 PM 42.2106 -75.9392 327° Northwest 216 249 3,200 -550 Descending New York Center
Mon 12:56:40 PM 42.2467 -75.9700 328° Northwest 184 212 2,700 -500 Descending New York Center
Mon 12:57:40 PM 42.2392 -76.0000 251° West 127 146 2,200 1,150 Descending New York Center
Mon 12:58:40 PM 42.2706 -76.0419 315° West 127 146 5,000 2,800 Climbing New York Center

Login

Don't have an account? Register now (free) for customized features, flight alerts, and more!